Time;durP1;ratioP1;P1;durP2;ratioP2;P2;SDS_P1;SDS_P2;PMS_P1;PMS_P2;Temp;Humidity;BMP_temperature;BMP_pressure;BME280_temperature;BME280_humidity;BME280_pressure;Samples;Min_cycle;Max_cycle;Signal;HPM_P1;HPM_P2
2022/01/04 00:00:40;;;;;;;295.52;147.13;;;;;;;;;;5034116;28;20029;-58
2022/01/04 00:03:06;;;;;;;272.08;138.00;;;;;;;;;;5033596;28;20472;-57
2022/01/04 00:05:33;;;;;;;276.40;141.38;;;;;;;;;;5035491;28;20025;-58
2022/01/04 00:08:00;;;;;;;318.00;157.90;;;;;;;;;;5034654;28;20025;-60
2022/01/04 00:10:28;;;;;;;322.63;154.65;;;;;;;;;;5035547;28;20025;-58
2022/01/04 00:15:42;;;;;;;264.52;130.75;;;;;;;;;;5034362;28;20035;-60
2022/01/04 00:18:09;;;;;;;279.13;137.25;;;;;;;;;;5034836;28;20467;-59
2022/01/04 00:20:35;;;;;;;279.25;139.02;;;;;;;;;;5034722;28;20478;-60
2022/01/04 00:23:01;;;;;;;252.73;128.07;;;;;;;;;;5034102;28;20428;-59
2022/01/04 00:25:27;;;;;;;269.65;131.07;;;;;;;;;;5034369;28;20026;-58
2022/01/04 00:27:53;;;;;;;324.15;160.18;;;;;;;;;;5034600;28;20017;-58
2022/01/04 00:30:19;;;;;;;354.40;184.48;;;;;;;;;;5034270;28;20032;-59
2022/01/04 00:32:46;;;;;;;334.55;168.20;;;;;;;;;;5034406;28;20095;-59
2022/01/04 00:35:12;;;;;;;339.73;170.45;;;;;;;;;;5034371;28;20025;-58
2022/01/04 00:37:38;;;;;;;325.98;165.80;;;;;;;;;;5034494;28;20053;-58
2022/01/04 00:40:05;;;;;;;315.15;157.18;;;;;;;;;;5033875;28;20041;-61
2022/01/04 00:42:31;;;;;;;296.52;145.52;;;;;;;;;;5033847;28;20025;-60
2022/01/04 00:44:57;;;;;;;263.98;133.93;;;;;;;;;;5034060;28;20026;-58
2022/01/04 00:47:37;;;;;;;256.48;131.10;;;;;;;;;;5033924;28;20021;-57
2022/01/04 00:50:04;;;;;;;257.95;132.52;;;;;;;;;;5033767;28;20491;-60
2022/01/04 00:52:30;;;;;;;274.90;136.70;;;;;;;;;;5049392;28;20044;-61
2022/01/04 00:54:56;;;;;;;280.45;140.15;;;;;;;;;;5049438;28;20431;-58
2022/01/04 00:57:22;;;;;;;294.40;148.57;;;;;;;;;;5033527;28;20071;-62
2022/01/04 00:59:48;;;;;;;246.32;118.53;;;;;;;;;;5034462;28;20021;-59
2022/01/04 01:02:15;;;;;;;201.43;98.53;;;;;;;;;;5033716;28;20387;-57
2022/01/04 01:04:41;;;;;;;180.32;89.82;;;;;;;;;;5033457;28;20024;-60
2022/01/04 01:07:07;;;;;;;176.10;87.22;;;;;;;;;;5033913;28;20055;-59
2022/01/04 01:09:39;;;;;;;245.18;123.10;;;;;;;;;;5033163;28;20072;-60
2022/01/04 01:12:06;;;;;;;250.65;129.90;;;;;;;;;;5032409;28;20068;-58
2022/01/04 01:14:32;;;;;;;255.73;122.13;;;;;;;;;;5033511;28;20484;-59
2022/01/04 01:16:58;;;;;;;204.82;103.18;;;;;;;;;;5033489;28;20487;-60
2022/01/04 01:19:24;;;;;;;170.20;87.03;;;;;;;;;;5033424;28;20021;-58
2022/01/04 01:21:50;;;;;;;151.80;77.03;;;;;;;;;;5033765;28;20021;-61
2022/01/04 01:24:17;;;;;;;127.93;60.40;;;;;;;;;;5033198;28;20021;-60
2022/01/04 01:26:43;;;;;;;135.93;63.03;;;;;;;;;;5033484;28;20049;-57
2022/01/04 01:29:09;;;;;;;108.78;54.60;;;;;;;;;;5033700;28;20028;-58
2022/01/04 01:31:35;;;;;;;102.10;50.33;;;;;;;;;;5033537;28;20115;-58
2022/01/04 01:34:01;;;;;;;98.18;47.75;;;;;;;;;;5033672;28;20033;-59
2022/01/04 01:36:27;;;;;;;87.03;44.20;;;;;;;;;;5033594;28;20029;-61
2022/01/04 01:38:53;;;;;;;93.10;47.33;;;;;;;;;;5033200;28;20041;-57
2022/01/04 01:41:20;;;;;;;106.95;50.17;;;;;;;;;;5033296;28;20031;-59
2022/01/04 01:43:47;;;;;;;76.78;39.42;;;;;;;;;;5033480;28;20049;-56
2022/01/04 01:46:13;;;;;;;90.43;45.75;;;;;;;;;;5033922;28;20022;-59
2022/01/04 01:48:39;;;;;;;92.70;46.60;;;;;;;;;;5034918;28;20396;-57
2022/01/04 01:51:06;;;;;;;101.65;49.83;;;;;;;;;;5035162;28;20021;-60
2022/01/04 01:53:32;;;;;;;101.97;47.65;;;;;;;;;;5038414;28;20124;-57
2022/01/04 01:55:58;;;;;;;94.82;46.00;;;;;;;;;;5038588;28;20052;-60
2022/01/04 01:58:24;;;;;;;84.85;44.03;;;;;;;;;;5037709;28;20036;-58
2022/01/04 02:00:50;;;;;;;81.95;40.90;;;;;;;;;;5037326;28;20018;-59
2022/01/04 02:03:17;;;;;;;75.70;37.08;;;;;;;;;;5037531;28;20025;-58
2022/01/04 02:05:43;;;;;;;80.97;41.25;;;;;;;;;;5037509;28;20057;-59
2022/01/04 02:08:10;;;;;;;76.40;37.95;;;;;;;;;;5036973;28;20017;-58
2022/01/04 02:10:36;;;;;;;70.80;36.13;;;;;;;;;;5037134;28;20101;-60
2022/01/04 02:13:02;;;;;;;68.43;35.88;;;;;;;;;;5019642;28;20142;-57
2022/01/04 02:15:31;;;;;;;72.93;33.80;;;;;;;;;;5036614;28;20029;-56
2022/01/04 02:17:57;;;;;;;66.28;33.67;;;;;;;;;;5036872;28;20104;-56
2022/01/04 02:20:23;;;;;;;63.63;33.95;;;;;;;;;;5036683;28;20022;-58
2022/01/04 02:22:49;;;;;;;60.13;31.10;;;;;;;;;;5036988;28;20029;-59
2022/01/04 02:25:16;;;;;;;62.35;32.10;;;;;;;;;;5036700;28;20491;-60
2022/01/04 02:27:42;;;;;;;58.15;30.48;;;;;;;;;;5036811;28;20029;-60
2022/01/04 02:30:11;;;;;;;57.58;31.48;;;;;;;;;;5036832;28;20037;-62
2022/01/04 02:32:37;;;;;;;76.15;38.13;;;;;;;;;;5037022;28;20451;-60
2022/01/04 02:35:03;;;;;;;96.15;45.67;;;;;;;;;;5036301;28;20032;-58
2022/01/04 02:37:31;;;;;;;68.35;32.97;;;;;;;;;;5036528;28;20032;-60
2022/01/04 02:39:57;;;;;;;75.07;35.92;;;;;;;;;;5036487;28;20411;-58
2022/01/04 02:42:24;;;;;;;87.30;43.33;;;;;;;;;;5036190;28;20049;-61
2022/01/04 02:44:50;;;;;;;98.28;50.05;;;;;;;;;;5036295;28;20104;-58
2022/01/04 02:47:17;;;;;;;99.30;49.00;;;;;;;;;;5036606;28;20053;-60
2022/01/04 02:49:43;;;;;;;92.53;46.53;;;;;;;;;;5036309;28;20025;-61
2022/01/04 02:52:09;;;;;;;97.53;47.08;;;;;;;;;;5036524;28;20476;-60
2022/01/04 02:54:36;;;;;;;92.57;46.45;;;;;;;;;;5036454;28;20061;-61
2022/01/04 02:57:02;;;;;;;97.90;47.88;;;;;;;;;;5036185;28;20029;-61
2022/01/04 02:59:28;;;;;;;103.50;49.95;;;;;;;;;;5036117;28;20022;-59
2022/01/04 03:01:54;;;;;;;113.95;54.55;;;;;;;;;;5036299;28;20037;-60
2022/01/04 03:04:20;;;;;;;116.70;55.75;;;;;;;;;;5035638;28;20480;-58
2022/01/04 03:06:47;;;;;;;114.43;52.63;;;;;;;;;;5035855;28;20483;-58
2022/01/04 03:09:13;;;;;;;107.70;51.67;;;;;;;;;;5036169;28;20103;-59
2022/01/04 03:11:39;;;;;;;130.95;59.35;;;;;;;;;;5035584;28;20044;-59
2022/01/04 03:14:06;;;;;;;120.18;57.55;;;;;;;;;;5035718;28;20387;-60
2022/01/04 03:16:32;;;;;;;137.75;63.28;;;;;;;;;;5035765;28;20030;-57
2022/01/04 03:19:06;;;;;;;130.05;62.90;;;;;;;;;;5036223;28;20025;-60
2022/01/04 03:21:35;;;;;;;144.15;63.95;;;;;;;;;;5036146;28;20025;-59
2022/01/04 03:24:03;;;;;;;270.00;112.15;;;;;;;;;;5035624;28;20049;-60
2022/01/04 03:26:29;;;;;;;144.88;71.72;;;;;;;;;;5035976;28;20029;-57
2022/01/04 03:28:55;;;;;;;145.68;66.80;;;;;;;;;;5035886;28;20104;-58
2022/01/04 03:31:22;;;;;;;136.50;64.55;;;;;;;;;;5034855;28;20502;-56
2022/01/04 03:33:48;;;;;;;143.48;63.67;;;;;;;;;;5035771;28;20040;-59
2022/01/04 03:36:14;;;;;;;134.75;63.13;;;;;;;;;;5035627;28;20017;-56
2022/01/04 03:38:41;;;;;;;128.50;61.60;;;;;;;;;;5035011;28;20349;-57
2022/01/04 03:41:08;;;;;;;131.45;62.22;;;;;;;;;;5035258;28;20524;-61
2022/01/04 03:43:37;;;;;;;134.00;61.75;;;;;;;;;;5035488;28;20479;-57
2022/01/04 03:46:03;;;;;;;138.18;65.05;;;;;;;;;;5035219;28;20060;-57
2022/01/04 03:48:29;;;;;;;149.52;68.70;;;;;;;;;;5035117;28;20024;-58
2022/01/04 03:50:55;;;;;;;158.55;71.18;;;;;;;;;;5035429;28;20036;-60
2022/01/04 03:53:21;;;;;;;144.80;64.50;;;;;;;;;;5034761;28;20030;-58
2022/01/04 03:55:47;;;;;;;123.57;56.97;;;;;;;;;;5035272;28;20071;-59
2022/01/04 03:58:14;;;;;;;121.10;57.30;;;;;;;;;;5035003;28;20071;-58
2022/01/04 04:00:40;;;;;;;90.78;44.80;;;;;;;;;;5035243;28;20530;-59
2022/01/04 04:03:06;;;;;;;106.00;50.88;;;;;;;;;;5035471;28;20471;-58
2022/01/04 04:05:32;;;;;;;130.23;59.00;;;;;;;;;;5034635;28;20421;-59
2022/01/04 04:07:58;;;;;;;136.60;63.30;;;;;;;;;;5034969;28;20362;-59
2022/01/04 04:10:24;;;;;;;145.77;69.70;;;;;;;;;;5034795;28;20476;-58
2022/01/04 04:12:50;;;;;;;143.73;64.50;;;;;;;;;;5034568;28;20032;-60
2022/01/04 04:15:17;;;;;;;148.35;68.35;;;;;;;;;;5034092;28;20072;-58
2022/01/04 04:17:45;;;;;;;132.50;66.93;;;;;;;;;;5034592;28;20022;-59
2022/01/04 04:20:11;;;;;;;146.75;68.78;;;;;;;;;;5034537;28;20057;-60
2022/01/04 04:22:37;;;;;;;155.45;70.95;;;;;;;;;;5034876;28;20064;-59
2022/01/04 04:25:04;;;;;;;135.18;65.15;;;;;;;;;;5034783;28;20053;-59
2022/01/04 04:27:30;;;;;;;133.65;63.50;;;;;;;;;;5034342;28;20040;-58
2022/01/04 04:29:56;;;;;;;125.78;59.72;;;;;;;;;;5034668;28;20024;-59
2022/01/04 04:32:22;;;;;;;111.05;53.00;;;;;;;;;;5034448;28;20076;-60
2022/01/04 04:34:48;;;;;;;103.75;50.45;;;;;;;;;;5034025;28;20031;-59
2022/01/04 04:37:14;;;;;;;102.57;48.60;;;;;;;;;;5016905;28;20391;-60
2022/01/04 04:39:41;;;;;;;115.60;54.70;;;;;;;;;;5034611;28;20025;-61
2022/01/04 04:42:07;;;;;;;116.03;53.78;;;;;;;;;;5034149;28;20036;-58
2022/01/04 04:44:33;;;;;;;136.25;61.10;;;;;;;;;;5035423;28;20064;-59
2022/01/04 04:46:59;;;;;;;125.40;61.53;;;;;;;;;;5034361;28;20468;-58
2022/01/04 04:49:26;;;;;;;118.45;55.17;;;;;;;;;;5033676;28;20494;-59
2022/01/04 04:51:54;;;;;;;119.53;55.97;;;;;;;;;;5016455;28;20419;-59
2022/01/04 04:54:20;;;;;;;114.20;52.45;;;;;;;;;;5033840;28;20026;-58
2022/01/04 04:56:47;;;;;;;105.35;50.53;;;;;;;;;;5034423;28;20136;-59
2022/01/04 04:59:13;;;;;;;103.88;49.67;;;;;;;;;;5033864;28;20030;-58
2022/01/04 05:01:39;;;;;;;110.60;49.90;;;;;;;;;;5033248;28;20025;-60
2022/01/04 05:04:05;;;;;;;102.72;48.58;;;;;;;;;;5033984;28;20040;-59
2022/01/04 05:06:31;;;;;;;93.32;48.47;;;;;;;;;;5033522;28;20365;-57
2022/01/04 05:08:57;;;;;;;123.80;56.10;;;;;;;;;;5033259;28;20075;-60
2022/01/04 05:11:23;;;;;;;110.30;53.38;;;;;;;;;;5034176;28;20026;-58
2022/01/04 05:13:49;;;;;;;99.10;47.85;;;;;;;;;;5033671;28;20076;-58
2022/01/04 05:16:16;;;;;;;93.78;45.25;;;;;;;;;;5033577;28;20104;-58
2022/01/04 05:18:42;;;;;;;96.07;44.10;;;;;;;;;;5033877;28;20032;-60
2022/01/04 05:21:08;;;;;;;93.70;45.90;;;;;;;;;;5033884;28;20088;-59
2022/01/04 05:23:35;;;;;;;83.13;39.75;;;;;;;;;;5033171;28;20029;-60
2022/01/04 05:26:01;;;;;;;73.88;37.40;;;;;;;;;;5032702;28;20469;-56
2022/01/04 05:28:27;;;;;;;75.32;35.83;;;;;;;;;;5033883;28;20017;-57
2022/01/04 05:30:53;;;;;;;61.88;31.38;;;;;;;;;;5033408;28;20018;-60
2022/01/04 05:33:19;;;;;;;74.40;35.50;;;;;;;;;;5033545;28;20033;-60
2022/01/04 05:35:47;;;;;;;75.35;37.70;;;;;;;;;;5033608;28;20094;-59
2022/01/04 05:38:13;;;;;;;78.22;37.47;;;;;;;;;;5033323;28;20030;-57
2022/01/04 05:40:39;;;;;;;76.43;39.55;;;;;;;;;;5032584;28;20029;-59
2022/01/04 05:43:06;;;;;;;66.97;34.42;;;;;;;;;;5033122;28;20168;-62
2022/01/04 05:45:32;;;;;;;70.90;35.00;;;;;;;;;;5033696;28;20389;-61
2022/01/04 05:48:00;;;;;;;70.03;35.92;;;;;;;;;;5033443;28;20468;-62
2022/01/04 05:50:26;;;;;;;70.05;34.53;;;;;;;;;;5033271;28;20029;-61
2022/01/04 05:52:52;;;;;;;75.45;37.00;;;;;;;;;;5033035;28;20361;-59
2022/01/04 05:55:18;;;;;;;71.68;36.80;;;;;;;;;;5032970;28;20522;-60
2022/01/04 05:57:44;;;;;;;72.00;34.35;;;;;;;;;;5033118;28;20021;-61
2022/01/04 06:00:11;;;;;;;68.75;35.45;;;;;;;;;;5033425;28;20021;-61
2022/01/04 06:02:37;;;;;;;64.43;33.15;;;;;;;;;;5033113;28;20025;-59
2022/01/04 06:05:03;;;;;;;65.15;32.58;;;;;;;;;;5033077;28;20021;-59
2022/01/04 06:07:29;;;;;;;58.25;32.80;;;;;;;;;;5031537;28;20021;-61
2022/01/04 06:09:56;;;;;;;67.22;33.95;;;;;;;;;;5032610;28;20026;-60
2022/01/04 06:14:52;;;;;;;63.58;33.95;;;;;;;;;;5033240;28;20037;-58
2022/01/04 06:17:19;;;;;;;67.53;34.13;;;;;;;;;;5032881;28;20022;-59
2022/01/04 06:19:45;;;;;;;61.45;32.72;;;;;;;;;;5032907;28;20494;-61
2022/01/04 06:22:11;;;;;;;68.07;35.67;;;;;;;;;;5032826;28;20072;-60
2022/01/04 06:24:38;;;;;;;70.55;35.70;;;;;;;;;;5033138;28;20038;-61
2022/01/04 06:27:08;;;;;;;67.20;33.00;;;;;;;;;;5032799;28;20033;-61
2022/01/04 06:29:35;;;;;;;73.22;35.40;;;;;;;;;;5033177;28;20022;-61
2022/01/04 06:32:02;;;;;;;69.13;34.80;;;;;;;;;;5033004;28;20384;-60
2022/01/04 06:34:28;;;;;;;71.63;34.95;;;;;;;;;;5032891;28;20079;-60
2022/01/04 06:36:54;;;;;;;75.45;37.13;;;;;;;;;;5033182;28;20028;-59
2022/01/04 06:39:20;;;;;;;72.75;37.45;;;;;;;;;;5036707;28;20033;-58
2022/01/04 06:41:46;;;;;;;76.20;35.85;;;;;;;;;;5019213;28;20034;-61
2022/01/04 06:44:13;;;;;;;64.90;35.33;;;;;;;;;;5037753;28;20041;-60
2022/01/04 06:46:44;;;;;;;74.45;36.97;;;;;;;;;;5036669;28;20036;-62
2022/01/04 06:49:11;;;;;;;66.82;36.13;;;;;;;;;;5036719;28;20396;-60
2022/01/04 06:51:37;;;;;;;76.68;34.83;;;;;;;;;;5036451;28;20100;-59
2022/01/04 06:54:03;;;;;;;61.25;33.42;;;;;;;;;;5035988;28;20021;-61
2022/01/04 06:56:29;;;;;;;62.40;32.70;;;;;;;;;;5036770;28;20025;-60
2022/01/04 06:58:55;;;;;;;71.32;35.22;;;;;;;;;;5036295;28;20032;-60
2022/01/04 07:01:22;;;;;;;74.05;37.03;;;;;;;;;;5034944;28;20064;-61
2022/01/04 07:03:48;;;;;;;77.57;39.25;;;;;;;;;;5036252;28;20034;-60
2022/01/04 07:06:14;;;;;;;94.93;44.85;;;;;;;;;;5035329;28;20076;-60
2022/01/04 07:08:40;;;;;;;93.13;47.22;;;;;;;;;;5035112;28;20029;-61
2022/01/04 07:11:07;;;;;;;94.88;47.35;;;;;;;;;;5034479;28;20063;-61
2022/01/04 07:13:33;;;;;;;84.07;45.00;;;;;;;;;;5035455;28;20041;-60
2022/01/04 07:15:59;;;;;;;91.97;47.80;;;;;;;;;;5017635;28;20026;-60
2022/01/04 07:18:25;;;;;;;93.35;47.67;;;;;;;;;;5035242;28;20076;-59
2022/01/04 07:20:51;;;;;;;88.32;44.33;;;;;;;;;;5035411;28;20116;-59
2022/01/04 07:23:17;;;;;;;84.03;40.80;;;;;;;;;;5035276;28;20033;-61
2022/01/04 07:25:44;;;;;;;75.70;41.20;;;;;;;;;;5035677;28;20101;-63
2022/01/04 07:28:10;;;;;;;67.05;37.00;;;;;;;;;;5035922;28;20419;-60
2022/01/04 07:30:36;;;;;;;68.85;35.33;;;;;;;;;;5036133;28;20043;-60
2022/01/04 07:33:02;;;;;;;67.18;33.72;;;;;;;;;;5035173;28;20033;-61
2022/01/04 07:35:28;;;;;;;63.22;34.17;;;;;;;;;;5018061;28;20026;-59
2022/01/04 07:37:54;;;;;;;64.18;33.35;;;;;;;;;;5035719;28;20025;-59
2022/01/04 07:40:21;;;;;;;61.70;32.95;;;;;;;;;;5035152;28;20096;-61
2022/01/04 07:42:47;;;;;;;58.97;31.92;;;;;;;;;;5035526;28;20050;-58
2022/01/04 07:45:14;;;;;;;57.03;29.92;;;;;;;;;;5035893;28;20029;-61
2022/01/04 07:47:43;;;;;;;63.15;33.38;;;;;;;;;;5035474;28;20026;-61
2022/01/04 07:50:10;;;;;;;82.07;39.58;;;;;;;;;;5034612;28;20029;-59
2022/01/04 07:52:36;;;;;;;86.10;42.80;;;;;;;;;;5035603;28;20365;-60
2022/01/04 07:55:03;;;;;;;79.45;39.78;;;;;;;;;;5034840;28;20456;-60
2022/01/04 07:57:29;;;;;;;87.13;42.25;;;;;;;;;;5035551;28;20467;-60
2022/01/04 07:59:56;;;;;;;74.90;39.17;;;;;;;;;;5035262;28;20032;-59
2022/01/04 08:02:22;;;;;;;77.15;39.22;;;;;;;;;;5035255;28;20036;-60
2022/01/04 08:04:48;;;;;;;93.45;47.60;;;;;;;;;;5034960;28;20075;-59
2022/01/04 08:07:14;;;;;;;78.13;43.53;;;;;;;;;;5034779;28;20483;-60
2022/01/04 08:09:41;;;;;;;74.90;38.42;;;;;;;;;;5035118;28;20025;-59
2022/01/04 08:12:08;;;;;;;74.53;36.72;;;;;;;;;;5034660;28;20471;-58
2022/01/04 08:14:34;;;;;;;77.40;40.05;;;;;;;;;;5034740;28;20411;-59
2022/01/04 08:17:00;;;;;;;85.35;44.75;;;;;;;;;;5034905;28;20033;-58
2022/01/04 08:19:26;;;;;;;106.18;57.22;;;;;;;;;;5034993;28;20029;-61
2022/01/04 08:21:52;;;;;;;107.10;58.25;;;;;;;;;;5034584;28;20018;-59
2022/01/04 08:24:18;;;;;;;96.28;52.00;;;;;;;;;;5035327;28;20029;-60
2022/01/04 08:26:45;;;;;;;81.75;46.10;;;;;;;;;;5034545;28;20028;-59
2022/01/04 08:29:11;;;;;;;94.18;50.33;;;;;;;;;;5034442;28;20021;-61
2022/01/04 08:31:37;;;;;;;115.78;61.63;;;;;;;;;;5034590;28;20025;-59
2022/01/04 08:34:03;;;;;;;119.75;64.45;;;;;;;;;;5034669;28;20026;-59
2022/01/04 08:36:29;;;;;;;118.95;64.00;;;;;;;;;;5034262;28;20104;-59
2022/01/04 08:38:56;;;;;;;118.68;65.78;;;;;;;;;;5034724;28;20067;-60
2022/01/04 08:41:23;;;;;;;112.10;63.88;;;;;;;;;;5034909;28;20369;-62
2022/01/04 08:43:49;;;;;;;121.30;65.35;;;;;;;;;;5034030;28;20045;-60
2022/01/04 08:46:15;;;;;;;132.68;74.10;;;;;;;;;;5034046;28;20468;-60
2022/01/04 08:48:41;;;;;;;144.55;83.10;;;;;;;;;;5033718;28;20533;-60
2022/01/04 08:51:07;;;;;;;163.10;89.53;;;;;;;;;;5034501;28;20436;-59
2022/01/04 08:53:34;;;;;;;165.93;93.65;;;;;;;;;;5033812;28;20049;-61
2022/01/04 08:56:01;;;;;;;177.57;98.97;;;;;;;;;;5033926;28;20074;-61
2022/01/04 08:58:28;;;;;;;171.55;100.28;;;;;;;;;;5034114;28;20350;-59
2022/01/04 09:00:55;;;;;;;174.68;102.50;;;;;;;;;;5033957;28;20032;-60
2022/01/04 09:03:21;;;;;;;180.27;101.93;;;;;;;;;;5033797;28;20022;-61
2022/01/04 09:05:48;;;;;;;163.52;91.85;;;;;;;;;;5034030;28;20353;-61
2022/01/04 09:08:14;;;;;;;171.57;94.38;;;;;;;;;;5034024;28;20024;-61
2022/01/04 09:10:40;;;;;;;177.50;103.65;;;;;;;;;;5032663;28;20030;-61
2022/01/04 09:13:13;;;;;;;164.38;95.78;;;;;;;;;;5032526;28;20041;-60
2022/01/04 09:20:54;;;;;;;168.25;99.25;;;;;;;;;;5033579;28;20083;-59
2022/01/04 09:23:21;;;;;;;182.80;104.28;;;;;;;;;;5033571;28;20025;-59
2022/01/04 09:25:53;;;;;;;170.73;100.05;;;;;;;;;;5033039;28;20025;-61
2022/01/04 09:28:21;;;;;;;145.20;82.35;;;;;;;;;;5032773;28;20030;-62
2022/01/04 09:30:50;;;;;;;125.43;73.55;;;;;;;;;;5033138;28;20044;-61
2022/01/04 09:33:16;;;;;;;131.85;77.45;;;;;;;;;;5033177;28;20392;-61
2022/01/04 09:35:44;;;;;;;154.85;85.68;;;;;;;;;;5033259;28;20075;-61
2022/01/04 09:38:10;;;;;;;154.15;84.53;;;;;;;;;;5033352;28;20030;-61
2022/01/04 09:40:37;;;;;;;141.07;82.15;;;;;;;;;;5033705;28;20459;-61
2022/01/04 09:43:05;;;;;;;129.23;70.13;;;;;;;;;;5032328;28;20045;-60
2022/01/04 09:45:31;;;;;;;123.45;70.35;;;;;;;;;;5033179;28;20025;-60
2022/01/04 09:47:57;;;;;;;138.55;77.70;;;;;;;;;;5033801;28;20452;-62
2022/01/04 09:50:24;;;;;;;125.50;66.75;;;;;;;;;;5033507;28;20112;-61
2022/01/04 09:52:51;;;;;;;97.68;56.88;;;;;;;;;;5033430;28;20033;-62
2022/01/04 09:55:18;;;;;;;100.85;57.72;;;;;;;;;;5033155;28;20029;-61
2022/01/04 09:57:45;;;;;;;116.53;68.60;;;;;;;;;;5032704;28;20087;-61
2022/01/04 10:00:16;;;;;;;128.52;73.18;;;;;;;;;;5032709;28;20014;-61
2022/01/04 10:02:43;;;;;;;111.03;66.50;;;;;;;;;;5033766;28;20076;-61
2022/01/04 10:05:20;;;;;;;112.97;66.63;;;;;;;;;;5033322;28;20022;-61
2022/01/04 10:07:47;;;;;;;103.53;61.17;;;;;;;;;;5032983;28;20017;-61
2022/01/04 10:10:15;;;;;;;98.68;55.38;;;;;;;;;;5033610;28;20029;-62
2022/01/04 10:12:51;;;;;;;103.65;58.33;;;;;;;;;;5033818;28;20388;-62
2022/01/04 10:15:34;;;;;;;95.32;55.75;;;;;;;;;;5036944;28;20051;-63
2022/01/04 10:18:23;;;;;;;82.70;49.00;;;;;;;;;;5037193;28;20040;-60
2022/01/04 10:21:09;;;;;;;93.18;53.55;;;;;;;;;;5036741;28;20468;-62
2022/01/04 10:23:43;;;;;;;93.93;55.28;;;;;;;;;;5037195;28;20434;-60
2022/01/04 10:26:09;;;;;;;94.53;56.58;;;;;;;;;;5036762;28;20464;-60
2022/01/04 10:28:40;;;;;;;93.05;56.15;;;;;;;;;;5036650;28;20383;-59
2022/01/04 10:31:11;;;;;;;84.07;52.45;;;;;;;;;;5037101;28;20096;-61
2022/01/04 10:33:37;;;;;;;97.22;56.92;;;;;;;;;;5036472;28;20033;-60
2022/01/04 10:36:14;;;;;;;94.88;55.92;;;;;;;;;;5036723;28;20025;-60
2022/01/04 10:38:42;;;;;;;101.50;61.83;;;;;;;;;;5037136;28;20021;-63
2022/01/04 10:41:21;;;;;;;115.57;65.72;;;;;;;;;;5036890;28;20171;-61
2022/01/04 10:44:07;;;;;;;93.40;53.25;;;;;;;;;;5037617;28;20080;-61
2022/01/04 10:46:43;;;;;;;84.00;49.47;;;;;;;;;;5036533;28;20026;-61
2022/01/04 10:49:20;;;;;;;75.47;43.75;;;;;;;;;;5036200;28;20028;-60
2022/01/04 10:52:07;;;;;;;69.78;43.75;;;;;;;;;;5036381;28;20035;-60
2022/01/04 10:54:33;;;;;;;72.15;42.75;;;;;;;;;;5036730;28;20063;-60
2022/01/04 10:57:06;;;;;;;78.03;44.20;;;;;;;;;;5036088;28;20026;-61
2022/01/04 10:59:32;;;;;;;69.75;42.90;;;;;;;;;;5035952;28;20026;-59
2022/01/04 11:01:58;;;;;;;71.25;42.58;;;;;;;;;;5035941;28;20372;-60
2022/01/04 11:04:26;;;;;;;70.70;43.75;;;;;;;;;;5036509;28;20059;-61
2022/01/04 11:06:57;;;;;;;64.22;38.30;;;;;;;;;;5036216;28;20052;-61
2022/01/04 11:09:24;;;;;;;60.33;37.00;;;;;;;;;;5036423;28;20368;-61
2022/01/04 11:11:50;;;;;;;62.15;38.72;;;;;;;;;;5035850;28;20377;-61
2022/01/04 11:14:16;;;;;;;61.78;36.22;;;;;;;;;;5036091;28;20026;-61
2022/01/04 11:16:42;;;;;;;61.53;37.45;;;;;;;;;;5035534;28;20048;-60
2022/01/04 11:19:09;;;;;;;61.17;38.85;;;;;;;;;;5036077;28;20022;-61
2022/01/04 11:21:36;;;;;;;63.50;40.83;;;;;;;;;;5036304;28;20029;-60
2022/01/04 11:24:04;;;;;;;67.97;42.03;;;;;;;;;;5034467;28;20026;-59
2022/01/04 11:26:30;;;;;;;63.88;40.67;;;;;;;;;;5035900;28;20096;-62
2022/01/04 11:28:57;;;;;;;63.47;38.83;;;;;;;;;;5035595;28;20059;-61
2022/01/04 11:31:29;;;;;;;61.60;37.63;;;;;;;;;;5035574;28;20029;-61
2022/01/04 11:34:02;;;;;;;62.65;37.95;;;;;;;;;;5035700;28;20025;-62
2022/01/04 11:36:28;;;;;;;159.70;89.22;;;;;;;;;;5035918;28;20034;-59
2022/01/04 11:38:55;;;;;;;55.67;34.70;;;;;;;;;;5035192;28;20048;-63
2022/01/04 11:41:23;;;;;;;50.83;33.42;;;;;;;;;;5035411;28;20075;-61
2022/01/04 11:43:50;;;;;;;60.38;35.53;;;;;;;;;;5035224;28;20435;-61
2022/01/04 11:46:36;;;;;;;51.33;32.97;;;;;;;;;;5035098;28;20380;-60
2022/01/04 11:49:09;;;;;;;56.47;34.17;;;;;;;;;;5044547;28;20017;-61
2022/01/04 11:51:36;;;;;;;53.53;34.85;;;;;;;;;;5042090;28;20037;-60
2022/01/04 11:54:21;;;;;;;50.90;34.15;;;;;;;;;;5041025;28;20028;-61
2022/01/04 11:56:54;;;;;;;50.03;34.50;;;;;;;;;;5034993;28;20083;-60
2022/01/04 11:59:22;;;;;;;55.75;34.25;;;;;;;;;;5033430;28;20063;-60
2022/01/04 12:01:49;;;;;;;50.67;30.20;;;;;;;;;;5035124;28;20372;-61
2022/01/04 12:04:35;;;;;;;47.10;30.35;;;;;;;;;;5034899;28;20053;-59
2022/01/04 12:07:01;;;;;;;49.20;31.58;;;;;;;;;;5033960;28;20040;-60
2022/01/04 12:09:29;;;;;;;58.33;37.95;;;;;;;;;;5034446;28;20026;-59
2022/01/04 12:11:56;;;;;;;47.97;32.22;;;;;;;;;;5033872;28;20045;-61
2022/01/04 12:14:24;;;;;;;52.63;35.05;;;;;;;;;;5031664;28;20017;-61
2022/01/04 12:17:09;;;;;;;59.40;39.25;;;;;;;;;;5034792;28;20053;-60
2022/01/04 12:19:45;;;;;;;61.17;39.75;;;;;;;;;;5033393;28;20029;-60
2022/01/04 12:22:12;;;;;;;58.22;38.80;;;;;;;;;;5032701;28;20035;-61
2022/01/04 12:24:42;;;;;;;58.30;36.90;;;;;;;;;;5031843;28;20050;-60
2022/01/04 12:27:09;;;;;;;59.03;37.47;;;;;;;;;;5033886;28;20097;-61
2022/01/04 12:29:36;;;;;;;66.80;41.83;;;;;;;;;;5034104;28;20018;-61
2022/01/04 12:32:04;;;;;;;65.57;39.10;;;;;;;;;;5033956;28;20068;-59
2022/01/04 12:34:34;;;;;;;64.90;40.47;;;;;;;;;;5033733;28;20026;-61
2022/01/04 12:37:01;;;;;;;62.75;37.65;;;;;;;;;;5031124;28;20096;-62
2022/01/04 12:39:37;;;;;;;63.90;39.67;;;;;;;;;;5034030;28;20048;-61
2022/01/04 12:42:04;;;;;;;60.17;37.78;;;;;;;;;;5032125;28;20017;-60
2022/01/04 12:44:30;;;;;;;63.60;40.03;;;;;;;;;;5034632;28;20049;-61
2022/01/04 12:46:57;;;;;;;65.28;41.50;;;;;;;;;;5034208;28;20044;-61
2022/01/04 12:49:24;;;;;;;67.57;43.65;;;;;;;;;;5016805;28;20061;-61
2022/01/04 12:51:57;;;;;;;71.00;44.78;;;;;;;;;;5034089;28;20499;-60
2022/01/04 12:54:25;;;;;;;68.47;43.17;;;;;;;;;;5033881;28;20452;-62
2022/01/04 12:56:53;;;;;;;67.22;41.67;;;;;;;;;;5033853;28;20354;-60
2022/01/04 12:59:25;;;;;;;69.05;42.67;;;;;;;;;;5033788;28;20078;-60
2022/01/04 13:01:53;;;;;;;71.43;42.78;;;;;;;;;;5033368;28;20025;-61
2022/01/04 13:04:24;;;;;;;70.65;41.72;;;;;;;;;;5034017;28;20030;-59
2022/01/04 13:06:50;;;;;;;;;;;;;;;;;;5034152;28;20096;-61
2022/01/04 13:09:23;;;;;;;68.35;40.78;;;;;;;;;;5033419;28;19933;-57
2022/01/04 13:11:53;;;;;;;68.32;42.22;;;;;;;;;;5032812;28;20482;-56
2022/01/04 13:14:21;;;;;;;64.78;39.67;;;;;;;;;;5033252;28;20112;-61
2022/01/04 13:16:48;;;;;;;77.97;45.05;;;;;;;;;;5033295;28;20021;-60
2022/01/04 13:19:15;;;;;;;77.85;42.92;;;;;;;;;;5033089;28;20117;-60
2022/01/04 13:21:42;;;;;;;66.15;38.72;;;;;;;;;;5033040;28;20029;-60
2022/01/04 13:24:09;;;;;;;63.45;37.17;;;;;;;;;;5033759;28;20076;-60
2022/01/04 13:26:35;;;;;;;65.72;38.45;;;;;;;;;;5033631;28;20353;-60
2022/01/04 13:29:02;;;;;;;66.15;36.80;;;;;;;;;;5033071;28;20026;-61
2022/01/04 13:31:28;;;;;;;60.33;34.50;;;;;;;;;;5033578;28;20096;-60
2022/01/04 13:33:55;;;;;;;60.17;34.78;;;;;;;;;;5033776;28;20052;-60
2022/01/04 13:36:25;;;;;;;51.92;32.25;;;;;;;;;;5033259;28;20025;-62
2022/01/04 13:38:57;;;;;;;47.28;27.98;;;;;;;;;;5033540;28;20060;-60
2022/01/04 13:41:36;;;;;;;47.25;29.30;;;;;;;;;;5033958;28;20020;-59
2022/01/04 13:44:03;;;;;;;50.20;29.40;;;;;;;;;;5033097;28;20049;-61
2022/01/04 13:46:29;;;;;;;45.80;26.75;;;;;;;;;;5033521;28;20017;-60
2022/01/04 13:48:56;;;;;;;51.83;27.10;;;;;;;;;;5032442;28;20499;-59
2022/01/04 13:51:26;;;;;;;68.88;34.80;;;;;;;;;;5032628;28;20060;-60
2022/01/04 13:53:53;;;;;;;66.35;33.72;;;;;;;;;;5032826;28;20388;-61
2022/01/04 13:56:20;;;;;;;63.67;34.50;;;;;;;;;;5033121;28;20025;-58
2022/01/04 13:58:50;;;;;;;66.70;34.22;;;;;;;;;;5033107;28;20053;-61
2022/01/04 14:01:16;;;;;;;384.08;149.15;;;;;;;;;;5032903;28;20032;-59
2022/01/04 14:03:43;;;;;;;96.47;44.55;;;;;;;;;;5032466;28;20096;-59
2022/01/04 14:06:28;;;;;;;59.17;31.20;;;;;;;;;;5033214;28;20427;-59
2022/01/04 14:08:54;;;;;;;116.70;56.22;;;;;;;;;;5032977;28;20380;-59
2022/01/04 14:11:27;;;;;;;68.15;37.53;;;;;;;;;;5032877;28;20091;-59
2022/01/04 14:13:54;;;;;;;47.28;28.00;;;;;;;;;;5032709;28;20108;-60
2022/01/04 14:16:21;;;;;;;77.35;41.75;;;;;;;;;;5032790;28;20021;-60
2022/01/04 14:19:06;;;;;;;55.70;32.53;;;;;;;;;;5032491;28;20100;-61
2022/01/04 14:21:39;;;;;;;55.63;29.67;;;;;;;;;;5033300;28;20052;-60
2022/01/04 14:24:24;;;;;;;70.35;38.78;;;;;;;;;;5032978;28;20025;-60